createdAt,value
2023-01-29T00:00:10.551Z,100.00
2023-01-29T00:02:11.748Z,100.00
2023-01-29T00:04:10.103Z,100.00
2023-01-29T00:06:10.363Z,100.00
2023-01-29T00:08:08.475Z,100.00
2023-01-29T00:10:07.556Z,100.00
2023-01-29T00:12:09.076Z,100.00
2023-01-29T00:14:07.541Z,100.00
2023-01-29T00:16:06.256Z,100.00
2023-01-29T00:18:04.883Z,100.00
2023-01-29T00:20:03.346Z,100.00
2023-01-29T00:22:01.690Z,100.00
2023-01-29T00:24:00.675Z,100.00
2023-01-29T00:26:01.364Z,100.00
2023-01-29T00:28:00.859Z,100.00
2023-01-29T00:30:12.137Z,100.00
2023-01-29T00:32:10.563Z,100.00
2023-01-29T00:34:09.110Z,100.00
2023-01-29T00:36:09.350Z,100.00
2023-01-29T00:38:07.575Z,100.00
2023-01-29T00:40:07.155Z,100.00
2023-01-29T00:42:23.115Z,100.00
2023-01-29T00:44:40.671Z,100.00
2023-01-29T00:46:39.364Z,100.00
2023-01-29T00:48:37.815Z,100.00
2023-01-29T00:50:36.187Z,100.00
2023-01-29T00:52:36.465Z,100.00
2023-01-29T00:54:34.928Z,100.00
2023-01-29T00:56:33.584Z,100.00
2023-01-29T00:58:34.350Z,100.00
2023-01-29T01:00:34.279Z,100.00
2023-01-29T01:02:49.708Z,100.00
2023-01-29T01:04:47.993Z,100.00
2023-01-29T01:06:46.577Z,100.00
2023-01-29T01:09:02.059Z,100.00
2023-01-29T01:11:02.216Z,100.00
2023-01-29T01:13:03.162Z,100.00
2023-01-29T01:15:01.483Z,100.00
2023-01-29T01:17:01.028Z,100.00
2023-01-29T01:18:59.132Z,100.00
2023-01-29T01:20:59.766Z,100.00
2023-01-29T01:22:58.573Z,100.00
2023-01-29T01:24:56.686Z,100.00
2023-01-29T01:26:57.092Z,100.00
2023-01-29T01:28:55.636Z,100.00
2023-01-29T01:30:53.909Z,100.00
2023-01-29T01:32:53.948Z,100.00
2023-01-29T01:34:53.717Z,100.00
2023-01-29T01:36:52.234Z,100.00
2023-01-29T01:38:50.472Z,100.00
2023-01-29T01:40:48.675Z,100.00
2023-01-29T01:42:49.035Z,100.00
2023-01-29T01:44:57.125Z,100.00
2023-01-29T01:46:55.499Z,100.00
2023-01-29T01:48:58.407Z,100.00
2023-01-29T01:51:03.488Z,100.00
2023-01-29T01:53:07.963Z,100.00
2023-01-29T01:55:08.121Z,100.00
2023-01-29T01:57:16.299Z,100.00
2023-01-29T01:59:17.531Z,100.00
2023-01-29T02:01:15.890Z,100.00
2023-01-29T02:03:31.808Z,100.00
2023-01-29T02:05:50.218Z,100.00
2023-01-29T02:08:09.238Z,100.00
2023-01-29T02:10:11.629Z,100.00
2023-01-29T02:12:13.230Z,100.00
2023-01-29T02:14:12.746Z,100.00
2023-01-29T02:16:11.039Z,100.00
2023-01-29T02:18:10.078Z,100.00
2023-01-29T02:20:18.783Z,100.00
2023-01-29T02:22:31.047Z,100.00
2023-01-29T02:24:53.157Z,100.00
2023-01-29T02:27:04.359Z,100.00
2023-01-29T02:29:25.241Z,100.00
2023-01-29T02:31:33.869Z,100.00
2023-01-29T02:33:45.704Z,100.00
2023-01-29T02:35:51.635Z,100.00
2023-01-29T02:37:58.668Z,100.00
2023-01-29T02:40:06.416Z,100.00
2023-01-29T02:42:16.820Z,100.00
2023-01-29T02:44:25.044Z,100.00
2023-01-29T02:46:31.632Z,100.00
2023-01-29T02:48:41.339Z,100.00
2023-01-29T02:50:45.911Z,100.00
2023-01-29T02:52:54.324Z,100.00
2023-01-29T02:54:56.504Z,100.00
2023-01-29T02:56:59.846Z,100.00
2023-01-29T02:59:03.642Z,100.00
2023-01-29T03:01:09.099Z,100.00
2023-01-29T03:03:13.698Z,100.00
2023-01-29T03:05:14.797Z,100.00
2023-01-29T03:07:37.556Z,100.00
2023-01-29T03:09:42.550Z,100.00
2023-01-29T03:11:47.146Z,100.00
2023-01-29T03:13:48.783Z,100.00
2023-01-29T03:15:51.793Z,100.00
2023-01-29T03:18:10.067Z,100.00
2023-01-29T03:20:13.977Z,100.00
2023-01-29T03:22:14.251Z,100.00
2023-01-29T03:24:33.983Z,100.00
2023-01-29T03:26:49.638Z,100.00
2023-01-29T03:29:06.782Z,100.00
2023-01-29T03:31:26.708Z,100.00
2023-01-29T03:33:36.905Z,100.00
2023-01-29T03:35:40.442Z,100.00
2023-01-29T03:37:44.000Z,100.00
2023-01-29T03:39:42.601Z,100.00
2023-01-29T03:41:50.081Z,100.00
2023-01-29T03:43:57.054Z,100.00
2023-01-29T03:46:03.689Z,100.00
2023-01-29T03:48:10.688Z,100.00
2023-01-29T03:50:19.910Z,100.00
2023-01-29T03:52:23.013Z,100.00
2023-01-29T03:54:30.875Z,100.00
2023-01-29T03:56:40.847Z,100.00
2023-01-29T03:58:45.034Z,100.00
2023-01-29T04:00:46.881Z,100.00
2023-01-29T04:02:50.353Z,100.00
2023-01-29T04:04:52.203Z,100.00
2023-01-29T04:06:55.693Z,100.00
2023-01-29T04:09:02.198Z,100.00
2023-01-29T04:11:07.139Z,100.00
2023-01-29T04:13:10.159Z,100.00
2023-01-29T04:15:15.562Z,100.00
2023-01-29T04:17:17.828Z,100.00
2023-01-29T04:19:23.952Z,100.00
2023-01-29T04:21:22.882Z,100.00
2023-01-29T04:23:24.476Z,100.00
2023-01-29T04:25:29.028Z,100.00
2023-01-29T04:27:35.761Z,100.00
2023-01-29T04:29:52.064Z,100.00
2023-01-29T04:32:02.144Z,100.00
2023-01-29T04:34:11.596Z,100.00
2023-01-29T04:36:25.023Z,100.00
2023-01-29T04:38:35.793Z,100.00
2023-01-29T04:40:44.684Z,100.00
2023-01-29T04:42:48.700Z,100.00
2023-01-29T04:44:55.650Z,100.00
2023-01-29T04:47:00.784Z,100.00
2023-01-29T04:49:12.048Z,100.00
2023-01-29T04:51:19.406Z,100.00
2023-01-29T04:53:25.025Z,100.00
2023-01-29T04:55:34.063Z,100.00
2023-01-29T04:57:37.807Z,100.00
2023-01-29T04:59:42.315Z,100.00
2023-01-29T05:01:40.586Z,100.00
2023-01-29T05:03:42.106Z,100.00
2023-01-29T05:05:42.906Z,100.00
2023-01-29T05:07:44.016Z,100.00
2023-01-29T05:09:45.300Z,100.00
2023-01-29T05:11:47.945Z,100.00
2023-01-29T05:13:49.143Z,100.00
2023-01-29T05:15:52.528Z,100.00
2023-01-29T05:17:50.860Z,100.00
2023-01-29T05:19:49.471Z,100.00
2023-01-29T05:21:50.402Z,100.00
2023-01-29T05:23:57.369Z,100.00
2023-01-29T05:25:57.651Z,100.00
2023-01-29T05:28:05.744Z,100.00
2023-01-29T05:30:04.389Z,100.00
2023-01-29T05:32:03.726Z,100.00
2023-01-29T05:34:01.765Z,100.00
2023-01-29T05:36:01.195Z,100.00
2023-01-29T05:37:59.973Z,100.00
2023-01-29T05:39:58.240Z,100.00
2023-01-29T05:41:56.406Z,100.00
2023-01-29T05:43:55.929Z,100.00
2023-01-29T05:45:55.323Z,100.00
2023-01-29T05:47:57.286Z,100.00
2023-01-29T05:49:55.505Z,100.00
2023-01-29T05:51:53.632Z,100.00
2023-01-29T05:53:52.047Z,100.00
2023-01-29T05:55:50.543Z,100.00
2023-01-29T05:57:48.780Z,100.00
2023-01-29T05:59:48.574Z,100.00
2023-01-29T06:01:46.775Z,100.00
2023-01-29T06:03:45.512Z,100.00
2023-01-29T06:05:43.891Z,100.00
2023-01-29T06:07:45.406Z,100.00
2023-01-29T06:09:43.908Z,100.00
2023-01-29T06:11:42.148Z,100.00
2023-01-29T06:13:40.570Z,100.00
2023-01-29T06:15:42.043Z,100.00
2023-01-29T06:17:40.267Z,100.00
2023-01-29T06:19:38.518Z,100.00
2023-01-29T06:21:36.721Z,100.00
2023-01-29T06:23:35.326Z,100.00
2023-01-29T06:25:34.021Z,100.00
2023-01-29T06:27:32.246Z,100.00
2023-01-29T06:29:30.365Z,100.00
2023-01-29T06:31:39.052Z,100.00
2023-01-29T06:33:37.987Z,100.00
2023-01-29T06:35:36.394Z,100.00
2023-01-29T06:37:34.639Z,100.00
2023-01-29T06:39:32.877Z,100.00
2023-01-29T06:41:31.335Z,100.00
2023-01-29T06:43:29.594Z,100.00
2023-01-29T06:45:27.891Z,100.00
2023-01-29T06:47:29.111Z,100.00
2023-01-29T06:49:27.549Z,100.00
2023-01-29T06:51:25.868Z,100.00
2023-01-29T06:53:25.079Z,100.00
2023-01-29T06:55:23.299Z,100.00
2023-01-29T06:57:21.492Z,100.00
2023-01-29T06:59:19.770Z,100.00
2023-01-29T07:01:34.512Z,100.00
2023-01-29T07:03:34.812Z,100.00
2023-01-29T07:05:33.292Z,100.00
2023-01-29T07:07:31.443Z,100.00
2023-01-29T07:09:29.665Z,100.00
2023-01-29T07:11:27.885Z,100.00
2023-01-29T07:13:26.330Z,100.00
2023-01-29T07:15:24.417Z,100.00
2023-01-29T07:17:22.810Z,100.00
2023-01-29T07:19:22.505Z,100.00
2023-01-29T07:21:21.043Z,100.00
2023-01-29T07:23:19.513Z,100.00
2023-01-29T07:25:17.852Z,100.00
2023-01-29T07:27:15.963Z,100.00
2023-01-29T07:29:14.162Z,100.00
2023-01-29T07:31:15.416Z,100.00
2023-01-29T07:33:13.876Z,100.00
2023-01-29T07:35:13.609Z,100.00
2023-01-29T07:37:12.711Z,100.00
2023-01-29T07:39:11.004Z,100.00
2023-01-29T07:41:10.641Z,100.00
2023-01-29T07:43:10.777Z,100.00
2023-01-29T07:45:11.411Z,100.00
2023-01-29T07:47:09.799Z,100.00
2023-01-29T07:49:07.987Z,100.00
2023-01-29T07:51:08.552Z,100.00
2023-01-29T07:53:06.846Z,100.00
2023-01-29T07:55:05.219Z,100.00
2023-01-29T07:57:03.400Z,100.00
2023-01-29T07:59:01.654Z,100.00
2023-01-29T08:00:59.908Z,100.00
2023-01-29T08:03:03.583Z,100.00
2023-01-29T08:05:01.872Z,100.00
2023-01-29T08:07:01.377Z,100.00
2023-01-29T08:08:59.852Z,100.00
2023-01-29T08:10:58.036Z,100.00
2023-01-29T08:12:57.638Z,100.00
2023-01-29T08:14:55.850Z,100.00
2023-01-29T08:16:54.114Z,100.00
2023-01-29T08:18:52.251Z,100.00
2023-01-29T08:20:51.372Z,100.00
2023-01-29T08:23:00.552Z,100.00
2023-01-29T08:25:06.356Z,100.00
2023-01-29T08:27:06.257Z,100.00
2023-01-29T08:29:04.552Z,100.00
2023-01-29T08:31:03.572Z,100.00
2023-01-29T08:33:03.906Z,100.00
2023-01-29T08:35:02.146Z,100.00
2023-01-29T08:37:00.452Z,100.00
2023-01-29T08:39:00.119Z,100.00
2023-01-29T08:40:58.202Z,100.00
2023-01-29T08:43:02.089Z,100.00
2023-01-29T08:45:01.372Z,100.00
2023-01-29T08:46:59.673Z,100.00
2023-01-29T08:48:57.870Z,100.00
2023-01-29T08:50:58.707Z,100.00
2023-01-29T08:52:59.456Z,100.00
2023-01-29T08:54:59.054Z,100.00
2023-01-29T08:56:57.341Z,99.59
2023-01-29T08:58:56.054Z,99.24
2023-01-29T09:00:55.167Z,99.06
2023-01-29T09:02:53.840Z,99.27
2023-01-29T09:04:52.101Z,99.03
2023-01-29T09:06:50.296Z,98.94
2023-01-29T09:08:49.831Z,99.25
2023-01-29T09:10:49.546Z,99.67
2023-01-29T09:12:47.756Z,98.80
2023-01-29T09:14:45.971Z,98.50
2023-01-29T09:16:44.341Z,98.48
2023-01-29T09:18:42.516Z,97.29
2023-01-29T09:20:40.875Z,97.26
2023-01-29T09:22:39.455Z,97.08
2023-01-29T09:24:37.895Z,96.42
2023-01-29T09:26:39.856Z,95.91
2023-01-29T09:28:38.497Z,96.78
2023-01-29T09:30:38.323Z,96.91
2023-01-29T09:32:52.508Z,97.51
2023-01-29T09:34:51.382Z,97.87
2023-01-29T09:36:49.603Z,97.82
2023-01-29T09:38:47.765Z,97.15
2023-01-29T09:40:57.176Z,98.97
2023-01-29T09:43:02.795Z,97.92
2023-01-29T09:45:07.408Z,98.34
2023-01-29T09:47:07.964Z,98.16
2023-01-29T09:49:14.801Z,97.39
2023-01-29T09:51:21.335Z,97.47
2023-01-29T09:53:22.987Z,97.26
2023-01-29T09:55:26.152Z,97.32
2023-01-29T09:57:29.079Z,96.92
2023-01-29T09:59:32.380Z,97.59
2023-01-29T10:01:37.481Z,97.37
2023-01-29T10:03:56.202Z,97.23
2023-01-29T10:06:09.953Z,98.25
2023-01-29T10:08:56.136Z,98.07
2023-01-29T10:10:58.938Z,98.29
2023-01-29T10:13:08.038Z,98.48
2023-01-29T10:15:21.834Z,98.64
2023-01-29T10:17:38.529Z,99.60
2023-01-29T10:19:56.300Z,98.42
2023-01-29T10:22:10.560Z,98.66
2023-01-29T10:24:19.871Z,96.84
2023-01-29T10:26:20.819Z,97.43
2023-01-29T10:28:22.816Z,97.31
2023-01-29T10:30:32.880Z,97.35
2023-01-29T10:32:32.319Z,98.21
2023-01-29T10:34:34.655Z,98.10
2023-01-29T10:36:37.514Z,98.56
2023-01-29T10:38:46.569Z,97.98
2023-01-29T10:40:50.751Z,98.17
2023-01-29T10:42:58.015Z,97.74
2023-01-29T10:45:10.301Z,97.86
2023-01-29T10:47:37.365Z,97.89
2023-01-29T10:50:00.883Z,98.54
2023-01-29T10:52:16.778Z,98.22
2023-01-29T10:54:45.476Z,99.15
2023-01-29T10:56:59.553Z,99.52
2023-01-29T10:59:02.993Z,99.27
2023-01-29T11:01:01.930Z,98.19
2023-01-29T11:03:26.303Z,97.49
2023-01-29T11:05:34.488Z,97.50
2023-01-29T11:07:33.092Z,97.43
2023-01-29T11:09:36.781Z,98.22
2023-01-29T11:11:40.761Z,98.41
2023-01-29T11:13:44.100Z,98.21
2023-01-29T11:15:42.293Z,98.32
2023-01-29T11:17:41.770Z,98.30
2023-01-29T11:19:43.890Z,98.04
2023-01-29T11:21:58.592Z,97.52
2023-01-29T11:24:08.885Z,97.97
2023-01-29T11:26:09.439Z,97.33
2023-01-29T11:28:08.209Z,97.18
2023-01-29T11:30:07.595Z,97.98
2023-01-29T11:32:08.482Z,97.19
2023-01-29T11:34:14.651Z,97.58
2023-01-29T11:36:33.029Z,96.81
2023-01-29T11:38:31.605Z,97.15
2023-01-29T11:40:41.250Z,97.48
2023-01-29T11:42:39.521Z,96.92
2023-01-29T11:44:44.639Z,96.32
2023-01-29T11:46:43.060Z,96.07
2023-01-29T11:48:44.929Z,96.44
2023-01-29T11:50:43.612Z,95.84
2023-01-29T11:52:45.594Z,95.37
2023-01-29T11:54:48.684Z,94.13
2023-01-29T11:56:48.371Z,94.33
2023-01-29T11:58:48.496Z,94.20
2023-01-29T12:00:50.058Z,92.33
2023-01-29T12:02:54.452Z,91.90
2023-01-29T12:04:52.997Z,90.03
2023-01-29T12:06:54.105Z,89.23
2023-01-29T12:08:59.707Z,88.40
2023-01-29T12:11:11.133Z,88.09
2023-01-29T12:13:27.353Z,87.50
2023-01-29T12:15:26.213Z,87.76
2023-01-29T12:17:28.156Z,89.51
2023-01-29T12:19:32.509Z,89.99
2023-01-29T12:21:37.816Z,90.48
2023-01-29T12:23:42.956Z,90.86
2023-01-29T12:25:49.529Z,90.60
2023-01-29T12:27:54.335Z,89.21
2023-01-29T12:29:59.285Z,90.50
2023-01-29T12:32:07.929Z,91.20
2023-01-29T12:34:18.465Z,90.34
2023-01-29T12:36:23.871Z,89.00
2023-01-29T12:38:23.920Z,89.22
2023-01-29T12:40:26.577Z,88.62
2023-01-29T12:42:26.376Z,87.71
2023-01-29T12:44:33.579Z,86.71
2023-01-29T12:46:38.549Z,86.30
2023-01-29T12:48:43.956Z,85.96
2023-01-29T12:50:42.748Z,86.15
2023-01-29T12:52:44.681Z,86.65
2023-01-29T12:54:49.274Z,88.73
2023-01-29T12:56:49.274Z,89.44
2023-01-29T12:58:52.350Z,88.56
2023-01-29T13:00:54.085Z,89.13
2023-01-29T13:03:00.831Z,89.92
2023-01-29T13:05:03.963Z,90.01
2023-01-29T13:07:12.303Z,89.96
2023-01-29T13:09:16.370Z,89.09
2023-01-29T13:11:22.380Z,90.24
2023-01-29T13:13:29.138Z,90.45
2023-01-29T13:15:33.333Z,90.53
2023-01-29T13:17:37.793Z,90.75
2023-01-29T13:19:38.208Z,90.42
2023-01-29T13:21:41.351Z,89.77
2023-01-29T13:23:44.781Z,90.38
2023-01-29T13:25:43.295Z,90.42
2023-01-29T13:27:44.193Z,90.70
2023-01-29T13:29:45.341Z,89.87
2023-01-29T13:31:49.576Z,89.93
2023-01-29T13:33:55.297Z,89.28
2023-01-29T13:36:00.472Z,88.74
2023-01-29T13:37:58.937Z,88.18
2023-01-29T13:39:59.472Z,88.11
2023-01-29T13:42:01.023Z,89.26
2023-01-29T13:44:00.334Z,89.78
2023-01-29T13:45:59.067Z,90.10
2023-01-29T13:48:11.207Z,90.59
2023-01-29T13:50:14.752Z,90.83
2023-01-29T13:52:25.249Z,91.20
2023-01-29T13:54:28.260Z,91.82
2023-01-29T13:56:48.022Z,90.79
2023-01-29T13:58:56.862Z,91.28
2023-01-29T14:00:55.797Z,90.36
2023-01-29T14:03:56.166Z,90.86
2023-01-29T14:06:01.447Z,91.03
2023-01-29T14:08:00.466Z,91.21
2023-01-29T14:10:15.912Z,91.23
2023-01-29T14:12:51.602Z,91.88
2023-01-29T14:15:04.339Z,91.95
2023-01-29T14:17:04.493Z,92.63
2023-01-29T14:19:04.073Z,92.34
2023-01-29T14:21:06.628Z,92.09
2023-01-29T14:23:05.407Z,92.00
2023-01-29T14:25:06.167Z,92.10
2023-01-29T14:27:04.520Z,92.04
2023-01-29T14:29:09.408Z,92.56
2023-01-29T14:31:07.807Z,92.23
2023-01-29T14:33:09.261Z,92.78
2023-01-29T14:35:20.132Z,93.62
2023-01-29T14:37:30.285Z,94.12
2023-01-29T14:39:36.872Z,94.31
2023-01-29T14:41:37.567Z,93.92
2023-01-29T14:43:35.852Z,94.35
2023-01-29T14:45:36.108Z,95.03
2023-01-29T14:48:00.831Z,95.58
2023-01-29T14:50:00.740Z,95.52
2023-01-29T14:51:59.819Z,96.03
2023-01-29T14:54:06.320Z,96.47
2023-01-29T14:56:12.316Z,96.84
2023-01-29T14:58:15.596Z,97.51
2023-01-29T15:00:28.009Z,97.93
2023-01-29T15:02:33.860Z,98.08
2023-01-29T15:04:45.623Z,98.14
2023-01-29T15:06:47.955Z,98.64
2023-01-29T15:08:52.030Z,99.45
2023-01-29T15:11:14.829Z,99.44
2023-01-29T15:13:22.308Z,99.59
2023-01-29T15:15:27.568Z,99.59
2023-01-29T15:17:30.867Z,98.95
2023-01-29T15:19:33.536Z,98.86
2023-01-29T15:21:31.732Z,99.42
2023-01-29T15:23:32.463Z,99.61
2023-01-29T15:25:36.445Z,99.69
2023-01-29T15:27:36.296Z,99.92
2023-01-29T15:29:34.500Z,100.00
2023-01-29T15:31:33.359Z,99.95
2023-01-29T15:33:33.089Z,99.76
2023-01-29T15:35:36.725Z,99.92
2023-01-29T15:37:36.470Z,100.00
2023-01-29T15:39:45.461Z,100.00
2023-01-29T15:41:44.940Z,100.00
2023-01-29T15:43:47.610Z,100.00
2023-01-29T15:45:45.895Z,99.98
2023-01-29T15:47:45.341Z,99.44
2023-01-29T15:49:43.897Z,99.65
2023-01-29T15:51:42.229Z,99.37
2023-01-29T15:53:45.848Z,99.78
2023-01-29T15:55:45.479Z,99.06
2023-01-29T15:57:45.010Z,99.63
2023-01-29T15:59:51.665Z,99.65
2023-01-29T16:01:49.946Z,99.54
2023-01-29T16:03:51.468Z,99.15
2023-01-29T16:05:50.168Z,99.57
2023-01-29T16:07:48.416Z,99.66
2023-01-29T16:09:46.812Z,99.65
2023-01-29T16:11:45.946Z,100.00
2023-01-29T16:13:46.923Z,99.78
2023-01-29T16:15:58.068Z,99.54
2023-01-29T16:17:56.998Z,98.93
2023-01-29T16:19:59.695Z,98.54
2023-01-29T16:22:03.927Z,97.47
2023-01-29T16:24:04.164Z,97.93
2023-01-29T16:26:04.681Z,97.81
2023-01-29T16:28:06.592Z,98.22
2023-01-29T16:30:07.616Z,98.64
2023-01-29T16:32:07.696Z,98.63
2023-01-29T16:34:10.364Z,98.39
2023-01-29T16:36:17.945Z,98.23
2023-01-29T16:38:28.503Z,97.51
2023-01-29T16:40:32.593Z,98.17
2023-01-29T16:42:31.778Z,98.89
2023-01-29T16:44:35.700Z,98.84
2023-01-29T16:46:37.111Z,97.81
2023-01-29T16:48:36.902Z,97.73
2023-01-29T16:50:46.448Z,98.34
2023-01-29T16:53:01.783Z,98.51
2023-01-29T16:55:02.888Z,97.83
2023-01-29T16:57:03.410Z,98.12
2023-01-29T16:59:05.753Z,98.11
2023-01-29T17:01:07.976Z,99.07
2023-01-29T17:03:08.519Z,99.39
2023-01-29T17:05:11.527Z,99.90
2023-01-29T17:07:21.258Z,100.00
2023-01-29T17:09:25.609Z,100.00
2023-01-29T17:11:33.673Z,100.00
2023-01-29T17:13:38.348Z,100.00
2023-01-29T17:15:45.098Z,100.00
2023-01-29T17:17:43.265Z,100.00
2023-01-29T17:19:41.760Z,100.00
2023-01-29T17:21:41.338Z,100.00
2023-01-29T17:23:39.896Z,100.00
2023-01-29T17:25:38.298Z,99.47
2023-01-29T17:27:36.860Z,98.37
2023-01-29T17:29:35.211Z,98.51
2023-01-29T17:31:33.746Z,98.86
2023-01-29T17:33:32.135Z,99.07
2023-01-29T17:35:30.322Z,99.64
2023-01-29T17:37:30.231Z,99.57
2023-01-29T17:39:28.550Z,99.90
2023-01-29T17:41:29.166Z,99.73
2023-01-29T17:43:27.552Z,99.30
2023-01-29T17:45:26.150Z,99.22
2023-01-29T17:47:24.481Z,99.47
2023-01-29T17:49:25.303Z,99.71
2023-01-29T17:51:25.004Z,100.00
2023-01-29T17:53:30.528Z,100.00
2023-01-29T17:55:34.560Z,100.00
2023-01-29T17:57:33.237Z,100.00
2023-01-29T17:59:32.920Z,100.00
2023-01-29T18:01:31.325Z,100.00
2023-01-29T18:03:30.362Z,100.00
2023-01-29T18:05:29.685Z,100.00
2023-01-29T18:07:28.565Z,100.00
2023-01-29T18:09:28.176Z,100.00
2023-01-29T18:11:26.711Z,100.00
2023-01-29T18:13:25.088Z,100.00
2023-01-29T18:15:23.261Z,100.00
2023-01-29T18:17:23.509Z,100.00
2023-01-29T18:19:23.637Z,100.00
2023-01-29T18:21:22.720Z,100.00
2023-01-29T18:23:21.309Z,100.00
2023-01-29T18:25:21.898Z,100.00
2023-01-29T18:27:21.337Z,100.00
2023-01-29T18:29:19.599Z,100.00
2023-01-29T18:31:18.046Z,100.00
2023-01-29T18:33:17.280Z,100.00
2023-01-29T18:35:16.199Z,100.00
2023-01-29T18:37:14.771Z,100.00
2023-01-29T18:39:13.124Z,100.00
2023-01-29T18:41:12.740Z,100.00
2023-01-29T18:43:11.144Z,100.00
2023-01-29T18:45:10.133Z,100.00
2023-01-29T18:47:10.446Z,100.00
2023-01-29T18:49:08.860Z,100.00
2023-01-29T18:51:07.496Z,100.00
2023-01-29T18:53:05.751Z,100.00
2023-01-29T18:55:06.379Z,100.00
2023-01-29T18:57:13.764Z,100.00
2023-01-29T18:59:26.761Z,100.00
2023-01-29T19:01:27.349Z,100.00
2023-01-29T19:03:25.926Z,100.00
2023-01-29T19:05:25.764Z,100.00
2023-01-29T19:07:23.922Z,100.00
2023-01-29T19:09:22.176Z,100.00
2023-01-29T19:11:20.596Z,100.00
2023-01-29T19:13:20.194Z,100.00
2023-01-29T19:15:22.762Z,100.00
2023-01-29T19:17:24.281Z,100.00
2023-01-29T19:19:22.617Z,100.00
2023-01-29T19:21:20.909Z,100.00
2023-01-29T19:23:23.561Z,100.00
2023-01-29T19:25:21.943Z,100.00
2023-01-29T19:27:20.225Z,100.00
2023-01-29T19:29:20.364Z,100.00
2023-01-29T19:31:18.752Z,100.00
2023-01-29T19:33:17.055Z,100.00
2023-01-29T19:35:17.919Z,100.00
2023-01-29T19:37:18.603Z,100.00
2023-01-29T19:39:17.212Z,100.00
2023-01-29T19:41:15.398Z,100.00
2023-01-29T19:43:15.471Z,100.00
2023-01-29T19:45:15.585Z,100.00
2023-01-29T19:47:14.086Z,100.00
2023-01-29T19:49:12.654Z,100.00
2023-01-29T19:51:12.406Z,100.00
2023-01-29T19:53:10.717Z,100.00
2023-01-29T19:55:09.837Z,100.00
2023-01-29T19:57:08.995Z,100.00
2023-01-29T19:59:12.981Z,100.00
2023-01-29T20:01:17.718Z,100.00
2023-01-29T20:03:16.166Z,100.00
2023-01-29T20:05:18.435Z,100.00
2023-01-29T20:07:17.094Z,100.00
2023-01-29T20:09:15.781Z,100.00
2023-01-29T20:11:15.286Z,100.00
2023-01-29T20:13:13.636Z,100.00
2023-01-29T20:15:12.155Z,100.00
2023-01-29T20:17:11.882Z,100.00
2023-01-29T20:19:14.675Z,100.00
2023-01-29T20:21:15.316Z,100.00
2023-01-29T20:23:16.727Z,100.00
2023-01-29T20:25:18.615Z,100.00
2023-01-29T20:27:16.907Z,100.00
2023-01-29T20:29:15.543Z,100.00
2023-01-29T20:31:13.756Z,100.00
2023-01-29T20:33:14.160Z,100.00
2023-01-29T20:35:12.450Z,100.00
2023-01-29T20:37:10.719Z,100.00
2023-01-29T20:39:09.014Z,100.00
2023-01-29T20:41:08.724Z,100.00
2023-01-29T20:43:06.857Z,100.00
2023-01-29T20:45:05.838Z,100.00
2023-01-29T20:47:06.576Z,100.00
2023-01-29T20:49:07.488Z,100.00
2023-01-29T20:51:08.193Z,100.00
2023-01-29T20:53:09.257Z,100.00
2023-01-29T20:55:10.054Z,100.00
2023-01-29T20:57:08.548Z,100.00
2023-01-29T20:59:07.040Z,100.00
2023-01-29T21:01:09.282Z,100.00
2023-01-29T21:03:07.504Z,100.00
2023-01-29T21:05:07.781Z,100.00
2023-01-29T21:07:05.922Z,100.00
2023-01-29T21:09:04.345Z,100.00
2023-01-29T21:11:02.934Z,100.00
2023-01-29T21:13:02.445Z,100.00
2023-01-29T21:15:00.738Z,100.00
2023-01-29T21:16:58.951Z,100.00
2023-01-29T21:18:58.468Z,100.00
2023-01-29T21:20:58.384Z,100.00
2023-01-29T21:23:04.219Z,100.00
2023-01-29T21:25:04.362Z,100.00
2023-01-29T21:27:02.579Z,100.00
2023-01-29T21:29:00.714Z,100.00
2023-01-29T21:31:06.848Z,100.00
2023-01-29T21:33:05.669Z,100.00
2023-01-29T21:35:09.886Z,100.00
2023-01-29T21:37:10.475Z,100.00
2023-01-29T21:39:17.581Z,100.00
2023-01-29T21:41:15.960Z,100.00
2023-01-29T21:43:13.250Z,100.00
2023-01-29T21:45:11.912Z,100.00
2023-01-29T21:47:24.058Z,100.00
2023-01-29T21:49:22.791Z,100.00
2023-01-29T21:51:21.051Z,100.00
2023-01-29T21:53:21.108Z,100.00
2023-01-29T21:55:19.420Z,100.00
2023-01-29T21:57:18.121Z,100.00
2023-01-29T21:59:16.507Z,100.00
2023-01-29T22:01:37.244Z,100.00
2023-01-29T22:03:33.281Z,100.00
2023-01-29T22:05:31.710Z,100.00
2023-01-29T22:07:30.246Z,100.00
2023-01-29T22:09:30.150Z,99.95
2023-01-29T22:11:28.555Z,99.64
2023-01-29T22:13:26.681Z,98.60
2023-01-29T22:15:24.911Z,98.55
2023-01-29T22:17:23.081Z,98.07
2023-01-29T22:19:21.355Z,98.30
2023-01-29T22:21:19.664Z,98.48
2023-01-29T22:23:17.802Z,98.12
2023-01-29T22:25:20.107Z,97.98
2023-01-29T22:27:18.417Z,97.88
2023-01-29T22:29:17.194Z,98.30
2023-01-29T22:31:17.241Z,98.28
2023-01-29T22:33:15.989Z,97.70
2023-01-29T22:35:14.150Z,98.14
2023-01-29T22:37:12.739Z,98.86
2023-01-29T22:39:11.251Z,99.37
2023-01-29T22:41:11.807Z,99.84
2023-01-29T22:43:09.888Z,99.18
2023-01-29T22:45:10.107Z,99.94
2023-01-29T22:47:08.369Z,99.14
2023-01-29T22:49:06.626Z,98.71
2023-01-29T22:51:11.386Z,99.51
2023-01-29T22:53:10.312Z,100.00
2023-01-29T22:55:10.349Z,100.00
2023-01-29T22:57:11.787Z,100.00
2023-01-29T22:59:11.380Z,100.00
2023-01-29T23:01:10.427Z,100.00
2023-01-29T23:03:08.778Z,99.78
2023-01-29T23:05:08.332Z,99.97
2023-01-29T23:07:06.863Z,100.00
2023-01-29T23:09:05.430Z,99.64
2023-01-29T23:11:14.399Z,99.68
2023-01-29T23:13:14.349Z,99.18
2023-01-29T23:15:12.772Z,98.88
2023-01-29T23:17:11.370Z,98.72
2023-01-29T23:19:11.050Z,97.88
2023-01-29T23:21:09.802Z,97.06
2023-01-29T23:23:08.557Z,95.25
2023-01-29T23:25:07.717Z,94.90
2023-01-29T23:27:17.038Z,93.39
2023-01-29T23:29:16.786Z,91.49
2023-01-29T23:31:14.972Z,91.78
2023-01-29T23:33:13.327Z,91.77
2023-01-29T23:35:11.704Z,91.63
2023-01-29T23:37:10.142Z,91.26
2023-01-29T23:39:08.732Z,91.44
2023-01-29T23:41:07.343Z,91.87
2023-01-29T23:43:05.655Z,92.10
2023-01-29T23:45:05.907Z,92.14
2023-01-29T23:47:04.249Z,92.03
2023-01-29T23:49:02.790Z,92.45
2023-01-29T23:51:01.051Z,91.52
2023-01-29T23:52:59.296Z,91.84
2023-01-29T23:54:57.505Z,91.67
2023-01-29T23:56:55.755Z,91.65
2023-01-29T23:58:55.118Z,91.87
